createdAt,value
2022-12-12T00:00:27.427Z,79.55
2022-12-12T00:02:53.923Z,79.53
2022-12-12T00:05:20.467Z,80.04
2022-12-12T00:07:46.887Z,80.22
2022-12-12T00:10:13.369Z,80.63
2022-12-12T00:12:39.843Z,80.86
2022-12-12T00:15:06.870Z,80.79
2022-12-12T00:17:33.316Z,80.80
2022-12-12T00:19:59.837Z,81.19
2022-12-12T00:22:26.265Z,81.85
2022-12-12T00:24:52.703Z,81.33
2022-12-12T00:27:19.136Z,81.50
2022-12-12T00:29:45.560Z,81.50
2022-12-12T00:32:11.962Z,81.17
2022-12-12T00:34:38.367Z,81.40
2022-12-12T00:37:04.769Z,81.30
2022-12-12T00:39:31.199Z,80.87
2022-12-12T00:41:57.617Z,81.03
2022-12-12T00:44:24.072Z,81.13
2022-12-12T00:46:50.516Z,81.06
2022-12-12T00:49:17.022Z,80.97
2022-12-12T00:51:43.813Z,81.05
2022-12-12T00:54:11.267Z,80.76
2022-12-12T00:56:38.989Z,81.47
2022-12-12T00:59:05.868Z,81.49
2022-12-12T01:01:33.944Z,81.53
2022-12-12T01:04:01.111Z,81.89
2022-12-12T01:06:28.147Z,82.52
2022-12-12T01:08:54.894Z,82.37
2022-12-12T01:11:22.671Z,83.12
2022-12-12T01:13:51.915Z,83.19
2022-12-12T01:16:18.374Z,83.70
2022-12-12T01:18:45.090Z,83.79
2022-12-12T01:21:14.463Z,83.50
2022-12-12T01:23:41.484Z,84.35
2022-12-12T01:26:12.000Z,84.63
2022-12-12T01:28:38.779Z,85.49
2022-12-12T01:31:05.738Z,85.12
2022-12-12T01:33:32.279Z,86.43
2022-12-12T01:35:59.085Z,86.80
2022-12-12T01:38:25.766Z,87.31
2022-12-12T01:40:53.049Z,87.92
2022-12-12T01:43:20.645Z,87.28
2022-12-12T01:46:02.629Z,87.97
2022-12-12T01:48:34.832Z,87.58
2022-12-12T01:51:04.744Z,87.80
2022-12-12T01:53:31.808Z,87.94
2022-12-12T01:55:58.997Z,87.35
2022-12-12T01:58:25.939Z,87.23
2022-12-12T02:00:52.442Z,87.86
2022-12-12T02:03:18.951Z,88.01
2022-12-12T02:05:49.306Z,87.79
2022-12-12T02:08:16.328Z,88.11
2022-12-12T02:10:44.499Z,88.46
2022-12-12T02:13:14.289Z,87.58
2022-12-12T02:16:05.170Z,87.32
2022-12-12T02:18:34.581Z,87.71
2022-12-12T02:21:26.078Z,87.72
2022-12-12T02:24:06.747Z,87.32
2022-12-12T02:26:55.645Z,87.71
2022-12-12T02:29:43.528Z,87.52
2022-12-12T02:32:12.812Z,86.88
2022-12-12T02:35:04.788Z,86.83
2022-12-12T02:37:41.724Z,86.47
2022-12-12T02:40:26.917Z,86.24
2022-12-12T02:43:31.015Z,86.39
2022-12-12T02:46:05.549Z,86.41
2022-12-12T02:48:43.064Z,86.52
2022-12-12T02:51:11.281Z,86.13
2022-12-12T02:53:37.718Z,86.13
2022-12-12T02:56:42.764Z,86.12
2022-12-12T02:59:10.875Z,86.27
2022-12-12T03:01:55.224Z,86.70
2022-12-12T03:04:48.433Z,86.62
2022-12-12T03:07:40.652Z,86.95
2022-12-12T03:10:13.776Z,87.64
2022-12-12T03:12:48.950Z,87.57
2022-12-12T03:15:25.147Z,87.71
2022-12-12T03:18:00.257Z,87.07
2022-12-12T03:20:29.724Z,87.55
2022-12-12T03:23:03.220Z,87.50
2022-12-12T03:25:51.461Z,87.39
2022-12-12T03:28:20.436Z,87.13
2022-12-12T03:30:48.722Z,87.14
2022-12-12T03:33:37.025Z,87.30
2022-12-12T03:36:10.378Z,87.48
2022-12-12T03:38:41.648Z,87.22
2022-12-12T03:41:14.554Z,87.32
2022-12-12T03:43:47.613Z,87.54
2022-12-12T03:46:18.379Z,87.44
2022-12-12T03:48:58.693Z,87.87
2022-12-12T03:51:30.724Z,88.63
2022-12-12T03:54:12.252Z,88.68
2022-12-12T03:56:49.614Z,88.80
2022-12-12T03:59:36.281Z,89.11
2022-12-12T04:02:04.640Z,89.06
2022-12-12T04:05:00.443Z,88.12
2022-12-12T04:07:37.668Z,88.74
2022-12-12T04:10:23.672Z,88.42
2022-12-12T04:13:10.243Z,88.61
2022-12-12T04:15:48.725Z,89.24
2022-12-12T04:18:33.886Z,89.34
2022-12-12T04:21:37.750Z,89.27
2022-12-12T04:24:23.096Z,89.56
2022-12-12T04:26:54.998Z,89.06
2022-12-12T04:29:21.327Z,89.49
2022-12-12T04:31:53.693Z,89.71
2022-12-12T04:34:26.513Z,89.40
2022-12-12T04:36:53.345Z,89.48
2022-12-12T04:39:20.604Z,89.14
2022-12-12T04:41:48.777Z,89.11
2022-12-12T04:44:16.375Z,89.12
2022-12-12T04:46:42.956Z,88.98
2022-12-12T04:49:14.771Z,89.06
2022-12-12T04:51:44.586Z,89.25
2022-12-12T04:54:15.964Z,88.85
2022-12-12T04:56:45.177Z,89.56
2022-12-12T04:59:11.677Z,89.87
2022-12-12T05:01:58.279Z,89.89
2022-12-12T05:04:38.194Z,89.42
2022-12-12T05:07:11.059Z,89.84
2022-12-12T05:09:37.553Z,89.51
2022-12-12T05:12:04.214Z,89.29
2022-12-12T05:14:31.517Z,89.62
2022-12-12T05:17:07.963Z,89.23
2022-12-12T05:19:34.392Z,89.52
2022-12-12T05:22:00.819Z,89.45
2022-12-12T05:24:31.112Z,89.26
2022-12-12T05:26:58.897Z,89.53
2022-12-12T05:29:25.325Z,89.03
2022-12-12T05:31:51.884Z,89.01
2022-12-12T05:34:18.418Z,89.08
2022-12-12T05:36:44.898Z,88.84
2022-12-12T05:39:11.354Z,88.66
2022-12-12T05:41:37.755Z,88.66
2022-12-12T05:44:04.161Z,88.68
2022-12-12T05:46:30.645Z,89.16
2022-12-12T05:48:57.122Z,88.99
2022-12-12T05:51:23.559Z,88.52
2022-12-12T05:53:49.961Z,89.05
2022-12-12T05:56:16.396Z,88.59
2022-12-12T05:58:43.152Z,88.94
2022-12-12T06:01:10.082Z,88.69
2022-12-12T06:03:36.644Z,88.93
2022-12-12T06:06:03.153Z,88.38
2022-12-12T06:08:29.779Z,88.47
2022-12-12T06:10:57.218Z,88.54
2022-12-12T06:13:23.677Z,88.44
2022-12-12T06:15:50.153Z,88.89
2022-12-12T06:18:16.559Z,88.49
2022-12-12T06:20:43.222Z,88.75
2022-12-12T06:23:09.604Z,89.36
2022-12-12T06:25:36.246Z,89.22
2022-12-12T06:28:02.720Z,89.04
2022-12-12T06:30:29.136Z,88.92
2022-12-12T06:32:56.180Z,88.68
2022-12-12T06:35:22.692Z,89.05
2022-12-12T06:37:49.140Z,89.39
2022-12-12T06:40:15.631Z,89.29
2022-12-12T06:42:46.395Z,89.09
2022-12-12T06:45:15.252Z,89.34
2022-12-12T06:47:42.039Z,88.85
2022-12-12T06:50:08.907Z,88.73
2022-12-12T06:52:35.318Z,89.01
2022-12-12T06:55:01.809Z,88.96
2022-12-12T06:57:29.050Z,89.00
2022-12-12T06:59:55.535Z,89.14
2022-12-12T07:02:27.757Z,89.50
2022-12-12T07:04:56.477Z,89.26
2022-12-12T07:07:22.909Z,88.95
2022-12-12T07:09:49.428Z,88.61
2022-12-12T07:12:15.878Z,88.81
2022-12-12T07:14:42.338Z,88.81
2022-12-12T07:17:08.830Z,88.42
2022-12-12T07:19:35.548Z,89.17
2022-12-12T07:22:09.022Z,88.73
2022-12-12T07:24:36.465Z,88.59
2022-12-12T07:27:03.263Z,88.55
2022-12-12T07:29:29.679Z,89.60
2022-12-12T07:31:56.177Z,89.85
2022-12-12T07:34:22.626Z,89.17
2022-12-12T07:36:49.247Z,89.72
2022-12-12T07:39:20.779Z,89.31
2022-12-12T07:41:47.685Z,89.50
2022-12-12T07:44:15.879Z,90.06
2022-12-12T07:46:42.476Z,89.48
2022-12-12T07:49:08.964Z,89.72
2022-12-12T07:51:35.462Z,90.08
2022-12-12T07:54:01.903Z,90.08
2022-12-12T07:56:28.590Z,89.88
2022-12-12T07:58:55.452Z,89.50
2022-12-12T08:01:24.540Z,89.41
2022-12-12T08:03:51.925Z,89.76
2022-12-12T08:06:19.146Z,89.58
2022-12-12T08:08:46.577Z,89.91
2022-12-12T08:11:15.041Z,89.70
2022-12-12T08:13:42.133Z,89.66
2022-12-12T08:16:13.895Z,89.33
2022-12-12T08:18:40.446Z,88.78
2022-12-12T08:21:08.683Z,88.57
2022-12-12T08:23:35.087Z,89.05
2022-12-12T08:26:13.881Z,89.20
2022-12-12T08:28:41.501Z,88.27
2022-12-12T08:31:08.826Z,88.38
2022-12-12T08:33:35.375Z,88.45
2022-12-12T08:36:22.422Z,87.96
2022-12-12T08:38:49.425Z,88.05
2022-12-12T08:41:16.299Z,87.81
2022-12-12T08:43:43.691Z,87.83
2022-12-12T08:46:17.902Z,87.19
2022-12-12T08:48:45.178Z,87.70
2022-12-12T08:51:11.658Z,87.33
2022-12-12T08:53:38.177Z,87.35
2022-12-12T08:56:04.991Z,87.34
2022-12-12T08:58:31.481Z,87.01
2022-12-12T09:00:57.915Z,86.68
2022-12-12T09:03:29.259Z,86.46
2022-12-12T09:05:56.241Z,86.25
2022-12-12T09:08:22.727Z,86.69
2022-12-12T09:10:50.149Z,86.68
2022-12-12T09:13:16.793Z,86.45
2022-12-12T09:15:43.264Z,86.25
2022-12-12T09:18:09.676Z,86.40
2022-12-12T09:20:36.076Z,86.39
2022-12-12T09:23:02.470Z,86.24
2022-12-12T09:25:28.926Z,85.96
2022-12-12T09:27:55.316Z,85.22
2022-12-12T09:30:22.209Z,85.46
2022-12-12T09:32:48.671Z,84.60
2022-12-12T09:35:16.118Z,85.15
2022-12-12T09:37:42.685Z,85.08
2022-12-12T09:40:13.133Z,85.27
2022-12-12T09:42:40.096Z,85.01
2022-12-12T09:45:07.823Z,84.42
2022-12-12T09:47:39.037Z,84.46
2022-12-12T09:50:21.657Z,84.37
2022-12-12T09:52:48.371Z,84.26
2022-12-12T09:55:20.873Z,83.85
2022-12-12T09:57:55.414Z,84.23
2022-12-12T10:00:21.991Z,84.18
2022-12-12T10:03:01.325Z,83.65
2022-12-12T10:05:35.213Z,83.42
2022-12-12T10:08:10.819Z,83.53
2022-12-12T10:10:40.527Z,82.67
2022-12-12T10:13:14.937Z,83.06
2022-12-12T10:15:45.016Z,83.26
2022-12-12T10:18:41.970Z,83.31
2022-12-12T10:21:16.037Z,82.53
2022-12-12T10:23:46.410Z,82.28
2022-12-12T10:26:25.707Z,82.57
2022-12-12T10:29:13.777Z,82.55
2022-12-12T10:31:57.797Z,82.39
2022-12-12T10:34:34.354Z,82.53
2022-12-12T10:37:25.319Z,82.01
2022-12-12T10:40:12.994Z,82.23
2022-12-12T10:42:56.122Z,81.84
2022-12-12T10:45:45.830Z,81.78
2022-12-12T10:48:12.400Z,81.37
2022-12-12T10:50:43.159Z,80.55
2022-12-12T10:53:11.007Z,79.44
2022-12-12T10:55:53.573Z,79.65
2022-12-12T10:58:24.895Z,79.83
2022-12-12T11:00:52.335Z,80.06
2022-12-12T11:03:34.573Z,79.91
2022-12-12T11:06:05.891Z,79.80
2022-12-12T11:08:35.159Z,80.52
2022-12-12T11:11:19.651Z,80.30
2022-12-12T11:13:57.627Z,79.55
2022-12-12T11:16:26.244Z,79.43
2022-12-12T11:19:04.376Z,79.58
2022-12-12T11:21:36.007Z,79.58
2022-12-12T11:24:08.615Z,79.54
2022-12-12T11:26:42.636Z,79.53
2022-12-12T11:29:27.626Z,79.08
2022-12-12T11:31:55.118Z,79.34
2022-12-12T11:34:22.435Z,79.14
2022-12-12T11:36:49.019Z,79.23
2022-12-12T11:39:24.619Z,79.11
2022-12-12T11:42:21.635Z,79.20
2022-12-12T11:44:58.480Z,79.01
2022-12-12T11:47:27.578Z,79.03
2022-12-12T11:50:01.966Z,79.44
2022-12-12T11:52:32.127Z,79.51
2022-12-12T11:54:59.307Z,79.24
2022-12-12T11:57:46.426Z,79.05
2022-12-12T12:00:14.039Z,79.19
2022-12-12T12:02:55.693Z,79.75
2022-12-12T12:05:41.943Z,79.37
2022-12-12T12:09:03.862Z,79.42
2022-12-12T12:11:37.257Z,79.66
2022-12-12T12:14:21.970Z,79.53
2022-12-12T12:16:54.314Z,79.48
2022-12-12T12:19:28.853Z,80.04
2022-12-12T12:22:14.115Z,79.62
2022-12-12T12:24:46.572Z,79.19
2022-12-12T12:28:04.646Z,79.44
2022-12-12T12:30:52.349Z,80.21
2022-12-12T12:33:33.572Z,80.27
2022-12-12T12:36:09.960Z,79.66
2022-12-12T12:38:55.585Z,80.10
2022-12-12T12:41:27.170Z,79.11
2022-12-12T12:44:27.688Z,79.83
2022-12-12T12:47:16.869Z,79.66
2022-12-12T12:49:51.243Z,80.31
2022-12-12T12:52:36.785Z,80.93
2022-12-12T12:55:03.753Z,80.79
2022-12-12T12:57:34.211Z,80.69
2022-12-12T13:00:09.891Z,80.54
2022-12-12T13:03:11.779Z,80.30
2022-12-12T13:05:42.487Z,80.37
2022-12-12T13:08:16.120Z,80.38
2022-12-12T13:10:47.051Z,80.18
2022-12-12T13:13:26.813Z,80.20
2022-12-12T13:16:11.831Z,80.10
2022-12-12T13:18:47.569Z,79.84
2022-12-12T13:21:27.929Z,80.25
2022-12-12T13:24:20.627Z,80.74
2022-12-12T13:26:59.603Z,80.83
2022-12-12T13:29:34.707Z,80.85
2022-12-12T13:32:34.660Z,80.49
2022-12-12T13:35:06.653Z,80.59
2022-12-12T13:37:36.324Z,80.53
2022-12-12T13:40:06.311Z,81.07
2022-12-12T13:42:54.072Z,80.56
2022-12-12T13:45:35.232Z,80.34
2022-12-12T13:48:04.326Z,80.14
2022-12-12T13:50:31.004Z,80.52
2022-12-12T13:53:06.556Z,80.59
2022-12-12T13:55:34.152Z,80.34
2022-12-12T13:58:02.501Z,80.88
2022-12-12T14:00:30.988Z,80.72
2022-12-12T14:03:03.708Z,80.20
2022-12-12T14:05:34.697Z,80.52
2022-12-12T14:08:28.377Z,80.35
2022-12-12T14:10:57.281Z,80.72
2022-12-12T14:13:26.941Z,80.44
2022-12-12T14:16:06.040Z,80.64
2022-12-12T14:18:39.931Z,80.46
2022-12-12T14:21:14.218Z,80.74
2022-12-12T14:23:42.703Z,80.79
2022-12-12T14:26:32.561Z,80.61
2022-12-12T14:29:17.244Z,80.87
2022-12-12T14:32:07.935Z,80.74
2022-12-12T14:34:34.247Z,81.11
2022-12-12T14:37:06.753Z,80.93
2022-12-12T14:39:41.802Z,81.14
2022-12-12T14:42:18.282Z,81.29
2022-12-12T14:44:50.513Z,81.31
2022-12-12T14:47:17.818Z,80.98
2022-12-12T14:49:44.697Z,81.17
2022-12-12T14:52:21.793Z,81.53
2022-12-12T14:54:51.496Z,81.52
2022-12-12T14:57:21.735Z,81.78
2022-12-12T14:59:48.757Z,81.37
2022-12-12T15:02:32.490Z,81.17
2022-12-12T15:05:04.902Z,80.66
2022-12-12T15:07:34.575Z,80.72
2022-12-12T15:10:01.092Z,80.52
2022-12-12T15:12:33.761Z,80.73
2022-12-12T15:15:00.446Z,80.66
2022-12-12T15:17:32.334Z,80.81
2022-12-12T15:20:01.162Z,80.30
2022-12-12T15:22:30.349Z,80.27
2022-12-12T15:24:59.153Z,80.59
2022-12-12T15:27:37.438Z,80.98
2022-12-12T15:30:13.022Z,80.60
2022-12-12T15:32:39.806Z,80.69
2022-12-12T15:35:09.358Z,80.98
2022-12-12T15:37:36.817Z,80.76
2022-12-12T15:40:09.465Z,80.96
2022-12-12T15:42:40.266Z,80.76
2022-12-12T15:45:08.866Z,80.60
2022-12-12T15:47:35.321Z,81.21
2022-12-12T15:50:19.673Z,80.58
2022-12-12T15:52:48.221Z,80.57
2022-12-12T15:55:22.422Z,80.52
2022-12-12T15:57:51.463Z,80.67
2022-12-12T16:00:32.155Z,80.99
2022-12-12T16:03:09.121Z,80.83
2022-12-12T16:05:37.967Z,81.50
2022-12-12T16:08:31.769Z,81.65
2022-12-12T16:11:00.653Z,81.20
2022-12-12T16:13:41.233Z,81.50
2022-12-12T16:16:45.372Z,81.22
2022-12-12T16:19:27.886Z,81.58
2022-12-12T16:21:54.814Z,81.58
2022-12-12T16:24:24.773Z,82.17
2022-12-12T16:26:52.822Z,82.17
2022-12-12T16:29:19.216Z,81.92
2022-12-12T16:31:45.897Z,81.91
2022-12-12T16:34:12.309Z,81.67
2022-12-12T16:36:42.201Z,81.62
2022-12-12T16:39:10.639Z,81.80
2022-12-12T16:41:37.107Z,81.77
2022-12-12T16:44:03.612Z,82.09
2022-12-12T16:46:30.072Z,82.12
2022-12-12T16:49:03.315Z,81.97
2022-12-12T16:51:31.201Z,81.52
2022-12-12T16:53:57.774Z,81.87
2022-12-12T16:56:24.789Z,81.46
2022-12-12T16:58:53.252Z,81.50
2022-12-12T17:01:20.467Z,81.50
2022-12-12T17:03:46.982Z,81.26
2022-12-12T17:06:13.538Z,80.99
2022-12-12T17:08:40.048Z,80.79
2022-12-12T17:11:10.109Z,80.78
2022-12-12T17:13:38.263Z,81.08
2022-12-12T17:16:04.917Z,80.91
2022-12-12T17:18:31.422Z,80.71
2022-12-12T17:20:57.947Z,81.17
2022-12-12T17:23:30.516Z,80.79
2022-12-12T17:26:03.510Z,80.50
2022-12-12T17:28:32.222Z,80.55
2022-12-12T17:30:58.791Z,80.35
2022-12-12T17:33:25.582Z,80.95
2022-12-12T17:35:59.757Z,80.65
2022-12-12T17:38:26.228Z,80.88
2022-12-12T17:40:53.938Z,80.93
2022-12-12T17:43:21.541Z,80.94
2022-12-12T17:46:00.036Z,80.23
2022-12-12T17:48:32.137Z,80.43
2022-12-12T17:51:04.748Z,80.59
2022-12-12T17:53:36.491Z,80.00
2022-12-12T17:56:11.844Z,80.35
2022-12-12T17:58:40.754Z,80.08
2022-12-12T18:01:16.427Z,79.89
2022-12-12T18:03:43.503Z,80.60
2022-12-12T18:06:10.708Z,80.38
2022-12-12T18:08:37.659Z,80.27
2022-12-12T18:11:12.241Z,80.59
2022-12-12T18:13:39.971Z,80.81
2022-12-12T18:16:08.209Z,80.35
2022-12-12T18:18:35.423Z,80.47
2022-12-12T18:21:07.084Z,80.41
2022-12-12T18:23:34.027Z,80.66
2022-12-12T18:26:05.484Z,80.22
2022-12-12T18:28:32.140Z,80.36
2022-12-12T18:30:58.669Z,79.77
2022-12-12T18:33:25.110Z,79.82
2022-12-12T18:35:51.796Z,79.48
2022-12-12T18:38:19.286Z,79.17
2022-12-12T18:40:45.726Z,78.69
2022-12-12T18:43:12.133Z,78.46
2022-12-12T18:45:38.627Z,78.64
2022-12-12T18:48:05.314Z,79.05
2022-12-12T18:50:32.864Z,79.44
2022-12-12T18:52:59.284Z,79.37
2022-12-12T18:55:29.854Z,79.38
2022-12-12T18:57:57.346Z,79.89
2022-12-12T19:00:24.655Z,79.23
2022-12-12T19:02:51.064Z,79.46
2022-12-12T19:05:17.607Z,79.67
2022-12-12T19:07:44.256Z,79.51
2022-12-12T19:10:10.775Z,79.44
2022-12-12T19:12:37.181Z,78.76
2022-12-12T19:15:20.194Z,78.60
2022-12-12T19:17:46.746Z,78.23
2022-12-12T19:20:13.473Z,78.00
2022-12-12T19:22:45.609Z,77.75
2022-12-12T19:25:18.029Z,77.65
2022-12-12T19:27:44.946Z,77.82
2022-12-12T19:30:13.033Z,78.27
2022-12-12T19:32:39.907Z,78.36
2022-12-12T19:35:07.312Z,78.69
2022-12-12T19:37:35.692Z,78.81
2022-12-12T19:40:02.155Z,78.21
2022-12-12T19:42:28.570Z,78.65
2022-12-12T19:44:54.978Z,78.64
2022-12-12T19:47:21.407Z,78.92
2022-12-12T19:49:49.236Z,78.96
2022-12-12T19:52:15.654Z,79.20
2022-12-12T19:54:42.115Z,79.23
2022-12-12T19:57:08.530Z,78.50
2022-12-12T19:59:34.953Z,78.36
2022-12-12T20:02:01.445Z,77.72
2022-12-12T20:04:30.015Z,77.94
2022-12-12T20:06:56.603Z,78.56
2022-12-12T20:09:26.202Z,78.72
2022-12-12T20:11:53.274Z,78.94
2022-12-12T20:14:24.180Z,79.29
2022-12-12T20:16:51.406Z,79.69
2022-12-12T20:19:18.200Z,79.24
2022-12-12T20:22:03.352Z,79.05
2022-12-12T20:24:31.224Z,79.38
2022-12-12T20:26:59.277Z,79.56
2022-12-12T20:29:25.762Z,79.58
2022-12-12T20:31:52.236Z,79.46
2022-12-12T20:34:21.655Z,79.20
2022-12-12T20:36:48.114Z,78.68
2022-12-12T20:39:16.827Z,78.43
2022-12-12T20:41:43.713Z,78.29
2022-12-12T20:44:12.028Z,78.32
2022-12-12T20:46:41.063Z,78.38
2022-12-12T20:49:09.490Z,77.91
2022-12-12T20:54:24.429Z,78.01
2022-12-12T20:56:51.604Z,77.54
2022-12-12T20:59:18.085Z,77.32
2022-12-12T21:01:44.659Z,77.08
2022-12-12T21:04:11.128Z,77.22
2022-12-12T21:06:40.264Z,77.45
2022-12-12T21:09:09.552Z,77.48
2022-12-12T21:11:36.737Z,77.35
2022-12-12T21:14:03.521Z,77.09
2022-12-12T21:16:32.842Z,76.87
2022-12-12T21:19:02.840Z,77.14
2022-12-12T21:21:29.878Z,77.28
2022-12-12T21:23:56.645Z,77.17
2022-12-12T21:26:28.897Z,77.19
2022-12-12T21:28:56.646Z,77.25
2022-12-12T21:31:25.534Z,77.32
2022-12-12T21:33:52.089Z,77.61
2022-12-12T21:36:20.833Z,77.36
2022-12-12T21:38:48.166Z,78.14
2022-12-12T21:41:17.761Z,78.03
2022-12-12T21:43:45.178Z,77.98
2022-12-12T21:46:20.601Z,78.08
2022-12-12T21:49:07.675Z,78.13
2022-12-12T21:51:34.623Z,77.80
2022-12-12T21:54:01.049Z,78.05
2022-12-12T21:56:27.489Z,77.95
2022-12-12T21:58:53.905Z,78.04
2022-12-12T22:01:21.104Z,77.88
2022-12-12T22:03:49.004Z,78.32
2022-12-12T22:06:23.904Z,78.21
2022-12-12T22:08:51.271Z,77.92
2022-12-12T22:11:34.349Z,78.03
2022-12-12T22:14:05.832Z,78.04
2022-12-12T22:16:33.590Z,78.13
2022-12-12T22:19:06.720Z,78.66
2022-12-12T22:21:34.043Z,78.59
2022-12-12T22:24:00.683Z,79.13
2022-12-12T22:26:31.666Z,79.31
2022-12-12T22:29:00.193Z,79.15
2022-12-12T22:31:28.614Z,78.96
2022-12-12T22:33:59.066Z,78.52
2022-12-12T22:36:30.145Z,78.51
2022-12-12T22:38:57.153Z,78.44
2022-12-12T22:41:24.473Z,78.47
2022-12-12T22:43:54.935Z,78.04
2022-12-12T22:46:21.871Z,77.81
2022-12-12T22:48:48.503Z,77.88
2022-12-12T22:51:17.535Z,77.40
2022-12-12T22:53:44.689Z,77.08
2022-12-12T22:56:11.560Z,77.19
2022-12-12T22:58:38.075Z,76.74
2022-12-12T23:01:08.422Z,76.83
2022-12-12T23:03:34.841Z,76.81
2022-12-12T23:06:09.882Z,76.45
2022-12-12T23:08:36.399Z,76.55
2022-12-12T23:11:11.586Z,76.49
2022-12-12T23:13:39.185Z,76.45
2022-12-12T23:16:08.059Z,75.85
2022-12-12T23:18:36.359Z,75.63
2022-12-12T23:21:03.481Z,75.69
2022-12-12T23:23:31.518Z,75.77
2022-12-12T23:26:05.734Z,75.71
2022-12-12T23:28:32.197Z,76.00
2022-12-12T23:30:58.617Z,75.71
2022-12-12T23:33:25.401Z,76.47
2022-12-12T23:35:52.623Z,76.67
2022-12-12T23:38:19.476Z,76.66
2022-12-12T23:40:46.117Z,76.28
2022-12-12T23:43:12.524Z,76.11
2022-12-12T23:45:39.116Z,75.83
2022-12-12T23:48:06.010Z,76.01
2022-12-12T23:50:33.008Z,76.02
2022-12-12T23:52:59.589Z,76.08
2022-12-12T23:55:26.037Z,76.08
2022-12-12T23:57:52.459Z,76.09
